createdAt,value
2022-12-05T00:00:03.411Z,66.53801
2022-12-05T00:05:05.320Z,66.93428
2022-12-05T00:10:06.898Z,68.32865
2022-12-05T00:15:08.485Z,66.53817
2022-12-05T00:20:10.297Z,65.82853
2022-12-05T00:25:12.019Z,68.94844
2022-12-05T00:30:13.532Z,68.05777
2022-12-05T00:35:15.413Z,68.99705
2022-12-05T00:40:17.018Z,68.20002
2022-12-05T00:45:18.640Z,67.01286
2022-12-05T00:50:20.327Z,67.62955
2022-12-05T00:55:21.807Z,67.14548
2022-12-05T01:00:24.214Z,67.1073
2022-12-05T01:05:26.172Z,68.23128
2022-12-05T01:10:28.078Z,67.04488
2022-12-05T01:15:29.734Z,64.59461
2022-12-05T01:20:31.411Z,64.13885
2022-12-05T01:25:32.951Z,61.58934
2022-12-05T01:30:34.454Z,62.72423
2022-12-05T01:35:36.207Z,62.61329
2022-12-05T01:40:38.016Z,60.32064
2022-12-05T01:45:39.698Z,64.15453
2022-12-05T01:50:41.323Z,63.63637
2022-12-05T01:55:42.987Z,64.35722
2022-12-05T02:00:44.514Z,64.55406
2022-12-05T02:05:46.365Z,65.5107
2022-12-05T02:10:47.879Z,65.07872
2022-12-05T02:15:53.926Z,64.06563
2022-12-05T02:20:58.459Z,63.10014
2022-12-05T02:26:00.247Z,62.91696
2022-12-05T02:31:01.913Z,64.04443
2022-12-05T02:36:03.673Z,66.69526
2022-12-05T02:41:05.397Z,67.90235
2022-12-05T02:46:07.118Z,66.87652
2022-12-05T02:51:08.947Z,66.63965
2022-12-05T02:56:10.447Z,65.5041
2022-12-05T03:01:12.040Z,64.8108
2022-12-05T03:06:13.806Z,63.18168
2022-12-05T03:11:15.272Z,62.7747
2022-12-05T03:16:16.945Z,62.10134
2022-12-05T03:21:18.622Z,59.75001
2022-12-05T03:26:20.348Z,60.72698
2022-12-05T03:31:22.236Z,59.93185
2022-12-05T03:36:23.941Z,60.75432
2022-12-05T03:41:25.548Z,61.07893
2022-12-05T03:46:27.229Z,61.96213
2022-12-05T03:51:28.827Z,63.08295
2022-12-05T03:56:30.323Z,61.94109
2022-12-05T04:01:31.906Z,60.48732
2022-12-05T04:06:33.795Z,60.64438
2022-12-05T04:11:35.277Z,61.19835
2022-12-05T04:16:36.879Z,61.99544
2022-12-05T04:21:38.582Z,69.66154
2022-12-05T04:26:40.035Z,77.79722
2022-12-05T04:31:41.740Z,74.61119
2022-12-05T04:36:43.666Z,78.06509
2022-12-05T04:41:45.370Z,77.81435
2022-12-05T04:46:47.004Z,77.76377
2022-12-05T04:51:48.655Z,76.21206
2022-12-05T04:56:50.173Z,77.36676
2022-12-05T05:01:51.664Z,82.72829
2022-12-05T05:06:53.639Z,90.91328
2022-12-05T05:11:55.151Z,100
2022-12-05T05:16:56.696Z,100
2022-12-05T05:21:58.260Z,100
2022-12-05T05:26:59.732Z,100
2022-12-05T05:32:01.411Z,100
2022-12-05T05:37:03.328Z,100
2022-12-05T05:42:04.817Z,95.37063
2022-12-05T05:47:06.735Z,100
2022-12-05T05:52:08.562Z,100
2022-12-05T05:57:10.253Z,100
2022-12-05T06:02:11.700Z,100
2022-12-05T06:07:13.455Z,100
2022-12-05T06:12:15.077Z,100
2022-12-05T06:17:16.621Z,100
2022-12-05T06:22:18.314Z,100
2022-12-05T06:27:19.996Z,100
2022-12-05T06:32:21.563Z,100
2022-12-05T06:37:23.527Z,98.10379
2022-12-05T06:42:25.309Z,98.08638
2022-12-05T06:47:26.920Z,95.46119
2022-12-05T06:52:28.613Z,95.34285
2022-12-05T06:57:30.068Z,92.51066
2022-12-05T07:02:31.922Z,91.97737
2022-12-05T07:07:33.798Z,97.21867
2022-12-05T07:12:35.411Z,96.90247
2022-12-05T07:17:37.128Z,98.87663
2022-12-05T07:22:38.811Z,100
2022-12-05T07:27:40.370Z,100
2022-12-05T07:32:42.264Z,95.1009
2022-12-05T07:37:44.131Z,90.8422
2022-12-05T07:42:45.713Z,84.32606
2022-12-05T07:47:47.285Z,85.97199
2022-12-05T07:52:48.987Z,79.28541
2022-12-05T07:57:50.579Z,77.14488
2022-12-05T08:02:52.424Z,75.12796
2022-12-05T08:07:54.387Z,78.78363
2022-12-05T08:12:55.928Z,67.63773
2022-12-05T08:17:57.463Z,70.07565
2022-12-05T08:22:58.948Z,72.27078
2022-12-05T08:28:00.455Z,70.61878
2022-12-05T08:33:02.054Z,73.84796
2022-12-05T08:38:03.673Z,75.25509
2022-12-05T08:43:05.163Z,79.05252
2022-12-05T08:48:06.842Z,79.81005
2022-12-05T08:53:08.440Z,81.70481
2022-12-05T08:58:10.075Z,84.31365
2022-12-05T09:03:11.871Z,89.28612
2022-12-05T09:08:13.694Z,91.02637
2022-12-05T09:13:15.931Z,89.7156
2022-12-05T09:18:17.453Z,94.39417
2022-12-05T09:23:19.166Z,91.72428
2022-12-05T09:28:20.671Z,91.46788
2022-12-05T09:33:22.363Z,94.88155
2022-12-05T09:38:24.213Z,95.92184
2022-12-05T09:43:25.796Z,100
2022-12-05T09:48:27.432Z,97.14426
2022-12-05T09:53:28.994Z,100
2022-12-05T09:58:30.712Z,98.74222
2022-12-05T10:03:32.303Z,100
2022-12-05T10:08:34.076Z,100
2022-12-05T10:13:35.784Z,93.42871
2022-12-05T10:18:37.453Z,100
2022-12-05T10:23:57.096Z,100
2022-12-05T10:28:59.505Z,100
2022-12-05T10:34:01.229Z,100
2022-12-05T10:39:06.934Z,100
2022-12-05T10:44:11.525Z,98.78098
2022-12-05T10:49:13.073Z,100
2022-12-05T10:54:14.665Z,97.87569
2022-12-05T10:59:16.461Z,96.95681
2022-12-05T11:04:19.350Z,100
2022-12-05T11:09:21.249Z,100
2022-12-05T11:14:22.876Z,100
2022-12-05T11:19:24.399Z,100
2022-12-05T11:24:26.013Z,100
2022-12-05T11:29:27.610Z,100
2022-12-05T11:34:29.165Z,100
2022-12-05T11:39:30.939Z,100
2022-12-05T11:44:32.722Z,100
2022-12-05T11:49:34.239Z,100
2022-12-05T11:55:04.029Z,100
2022-12-05T12:00:06.389Z,100
2022-12-05T12:05:07.883Z,100
2022-12-05T12:10:10.241Z,100
2022-12-05T12:15:11.769Z,100
2022-12-05T12:20:13.464Z,100
2022-12-05T12:25:15.085Z,100
2022-12-05T12:30:16.590Z,100
2022-12-05T12:35:18.050Z,100
2022-12-05T12:40:20.101Z,100
2022-12-05T12:45:22.856Z,100
2022-12-05T12:50:24.454Z,97.93434
2022-12-05T12:55:26.278Z,90.71133
2022-12-05T13:00:27.827Z,94.09721
2022-12-05T13:05:29.363Z,93.32263
2022-12-05T13:10:31.141Z,88.46584
2022-12-05T13:15:32.895Z,88.66964
2022-12-05T13:20:34.401Z,85.34725
2022-12-05T13:25:36.176Z,85.22839
2022-12-05T13:30:37.641Z,81.85728
2022-12-05T13:35:39.380Z,83.00252
2022-12-05T13:40:41.211Z,83.65314
2022-12-05T13:45:42.841Z,83.84822
2022-12-05T13:50:44.763Z,81.1473
2022-12-05T13:55:46.386Z,80.78419
2022-12-05T14:00:48.058Z,82.88288
2022-12-05T14:05:49.798Z,81.92
2022-12-05T14:10:51.554Z,79.51405
2022-12-05T14:15:53.131Z,81.18039
2022-12-05T14:20:55.028Z,78.45822
2022-12-05T14:25:59.669Z,77.07452
2022-12-05T14:31:02.899Z,78.37227
2022-12-05T14:36:04.809Z,78.98278
2022-12-05T14:41:06.954Z,81.79258
2022-12-05T14:46:08.824Z,78.53789
2022-12-05T14:51:10.579Z,74.94575
2022-12-05T14:56:12.125Z,71.09602
2022-12-05T15:01:13.729Z,75.26862
2022-12-05T15:06:15.354Z,79.52644
2022-12-05T15:11:17.202Z,77.69651
2022-12-05T15:16:18.988Z,72.59422
2022-12-05T15:21:20.678Z,71.97592
2022-12-05T15:31:46.432Z,73.1131
2022-12-05T15:36:47.923Z,73.48779
2022-12-05T15:41:49.725Z,76.20399
2022-12-05T15:46:51.250Z,77.09038
2022-12-05T15:51:52.724Z,76.57877
2022-12-05T15:56:54.287Z,75.27771
2022-12-05T16:01:55.800Z,75.97658
2022-12-05T16:06:57.462Z,77.2678
2022-12-05T16:11:59.123Z,76.78543
2022-12-05T16:17:00.815Z,79.46438
2022-12-05T16:22:02.239Z,82.04054
2022-12-05T16:27:03.905Z,78.14339
2022-12-05T16:32:05.688Z,78.12259
2022-12-05T16:37:07.220Z,79.72511
2022-12-05T16:42:09.519Z,80.54205
2022-12-05T16:47:11.378Z,82.98253
2022-12-05T16:52:12.854Z,80.44182
2022-12-05T16:57:14.408Z,79.47559
2022-12-05T17:02:15.968Z,79.98766
2022-12-05T17:07:17.533Z,81.80224
2022-12-05T17:12:19.888Z,78.51313
2022-12-05T17:17:22.539Z,80.05351
2022-12-05T17:22:24.073Z,80.76515
2022-12-05T17:27:25.751Z,82.08491
2022-12-05T17:32:27.327Z,80.1364
2022-12-05T17:37:28.813Z,81.74313
2022-12-05T17:42:30.520Z,81.45116
2022-12-05T17:47:32.153Z,86.19736
2022-12-05T17:52:33.837Z,84.71577
2022-12-05T17:57:35.496Z,86.00325
2022-12-05T18:02:37.032Z,83.58011
2022-12-05T18:07:38.724Z,85.31757
2022-12-05T18:12:40.412Z,86.11268
2022-12-05T18:17:41.916Z,88.27412
2022-12-05T18:22:43.525Z,86.44517
2022-12-05T18:27:45.001Z,89.48668
2022-12-05T18:32:47.732Z,91.64927
2022-12-05T18:37:49.221Z,92.09592
2022-12-05T18:42:51.116Z,92.73521
2022-12-05T18:47:54.660Z,87.31728
2022-12-05T18:52:58.720Z,91.27363
2022-12-05T18:58:00.328Z,90.13226
2022-12-05T19:03:06.552Z,89.53691
2022-12-05T19:08:11.044Z,90.60112
2022-12-05T19:13:12.710Z,89.75094
2022-12-05T19:18:14.207Z,91.47953
2022-12-05T19:23:15.766Z,90.66695
2022-12-05T19:28:17.267Z,89.99884
2022-12-05T19:33:18.748Z,92.65663
2022-12-05T19:38:20.272Z,93.39548
2022-12-05T19:43:22.047Z,95.80569
2022-12-05T19:48:23.851Z,96.50921
2022-12-05T19:53:25.352Z,94.26289
2022-12-05T19:58:26.791Z,95.9964
2022-12-05T20:03:28.420Z,93.32703
2022-12-05T20:08:29.969Z,94.28707
2022-12-05T20:13:46.842Z,93.72836
2022-12-05T20:18:49.153Z,96.09397
2022-12-05T20:23:50.727Z,92.91092
2022-12-05T20:28:52.271Z,93.32034
2022-12-05T20:33:54.066Z,93.74732
2022-12-05T20:38:55.648Z,92.44576
2022-12-05T20:43:57.644Z,93.69151
2022-12-05T20:48:59.240Z,93.19646
2022-12-05T20:54:00.727Z,93.17242
2022-12-05T20:59:02.365Z,92.32596
2022-12-05T21:04:04.088Z,90.10505
2022-12-05T21:09:05.666Z,90.94337
2022-12-05T21:14:07.550Z,93.79667
2022-12-05T21:19:09.106Z,94.25806
2022-12-05T21:24:10.696Z,92.97021
2022-12-05T21:29:12.293Z,90.58141
2022-12-05T21:34:13.939Z,92.22332
2022-12-05T21:39:15.423Z,95.15651
2022-12-05T21:44:17.167Z,91.85355
2022-12-05T21:49:18.853Z,93.45646
2022-12-05T21:54:20.588Z,93.45258
2022-12-05T21:59:22.197Z,95.63166
2022-12-05T22:04:23.790Z,91.84542
2022-12-05T22:09:25.362Z,90.50126
2022-12-05T22:14:27.771Z,93.07274
2022-12-05T22:19:29.228Z,97.82455
2022-12-05T22:24:30.726Z,95.82423
2022-12-05T22:29:33.297Z,93.63307
2022-12-05T22:34:34.728Z,95.30544
2022-12-05T22:39:36.225Z,94.29409
2022-12-05T22:44:38.053Z,93.29036
2022-12-05T22:49:39.702Z,92.34749
2022-12-05T22:54:41.426Z,93.76752
2022-12-05T22:59:42.998Z,91.60304
2022-12-05T23:04:44.564Z,93.44897
2022-12-05T23:09:46.052Z,93.7809
2022-12-05T23:14:47.966Z,92.21663
2022-12-05T23:19:49.440Z,92.95614
2022-12-05T23:24:50.927Z,92.91141
2022-12-05T23:29:52.532Z,93.43067
2022-12-05T23:34:54.368Z,94.25444
2022-12-05T23:39:55.892Z,97.65924
2022-12-05T23:44:57.963Z,93.74471
2022-12-05T23:49:59.832Z,93.81461
2022-12-05T23:55:01.401Z,93.25674
